createdAt,value
2019-01-16T00:00:43.903Z,99911.66
2019-01-16T00:03:52.712Z,99911.79
2019-01-16T00:06:46.694Z,99909.52
2019-01-16T00:09:37.296Z,99915.50
2019-01-16T00:12:39.565Z,99915.50
2019-01-16T00:15:22.504Z,99908.75
2019-01-16T00:18:18.918Z,99908.72
2019-01-16T00:21:09.616Z,99908.72
2019-01-16T00:24:15.269Z,99911.30
2019-01-16T00:27:20.828Z,99915.09
2019-01-16T00:30:09.691Z,99921.31
2019-01-16T00:32:58.836Z,99919.45
2019-01-16T00:35:34.887Z,99919.39
2019-01-16T00:38:33.129Z,99916.39
2019-01-16T00:41:21.829Z,99920.77
2019-01-16T00:44:13.082Z,99937.19
2019-01-16T00:47:03.847Z,99930.16
2019-01-16T00:49:53.007Z,99944.28
2019-01-16T00:52:39.521Z,99948.42
2019-01-16T00:55:30.169Z,99950.64
2019-01-16T00:58:12.328Z,99938.33
2019-01-16T01:01:05.884Z,99948.67
2019-01-16T01:03:59.233Z,99957.47
2019-01-16T01:06:59.013Z,99962.63
2019-01-16T01:10:07.062Z,99966.62
2019-01-16T01:12:56.119Z,99975.02
2019-01-16T01:15:41.040Z,99979.45
2019-01-16T01:18:40.887Z,99991.49
2019-01-16T01:21:41.336Z,99996.04
2019-01-16T01:24:35.100Z,99997.76
2019-01-16T01:27:31.430Z,100009.81
2019-01-16T01:30:40.282Z,100014.03
2019-01-16T01:33:30.761Z,100014.03
2019-01-16T01:36:14.800Z,100028.42
2019-01-16T01:39:03.249Z,100028.42
2019-01-16T01:41:54.362Z,100027.58
2019-01-16T01:44:38.520Z,100011.48
2019-01-16T01:47:35.679Z,100029.40
2019-01-16T01:50:25.647Z,100018.72
2019-01-16T01:53:31.393Z,100023.44
2019-01-16T01:56:27.423Z,100015.40
2019-01-16T01:59:20.584Z,100019.52
2019-01-16T02:02:11.214Z,100021.61
2019-01-16T02:05:00.548Z,100021.61
2019-01-16T02:08:09.798Z,100028.32
2019-01-16T02:10:51.209Z,100037.89
2019-01-16T02:13:38.875Z,100046.48
2019-01-16T02:16:29.167Z,100046.48
2019-01-16T02:19:25.335Z,100062.30
2019-01-16T02:22:30.859Z,100071.71
2019-01-16T02:25:19.738Z,100059.66
2019-01-16T02:28:10.425Z,100059.66
2019-01-16T02:31:00.502Z,100063.72
2019-01-16T02:33:56.536Z,100073.67
2019-01-16T02:36:59.224Z,100076.20
2019-01-16T02:40:04.980Z,100088.98
2019-01-16T02:42:54.040Z,100081.82
2019-01-16T02:46:00.500Z,100081.82
2019-01-16T02:48:56.539Z,100096.16
2019-01-16T02:51:50.023Z,100096.16
2019-01-16T02:54:49.600Z,100100.52
2019-01-16T02:57:42.457Z,100113.56
2019-01-16T03:00:36.430Z,100113.56
2019-01-16T03:03:28.090Z,100114.50
2019-01-16T03:06:17.236Z,100114.50
2019-01-16T03:09:00.496Z,100117.89
2019-01-16T03:11:44.044Z,100125.80
2019-01-16T03:14:40.225Z,100134.36
2019-01-16T03:17:30.458Z,100143.08
2019-01-16T03:20:30.221Z,100154.22
2019-01-16T03:23:16.888Z,100154.22
2019-01-16T03:26:13.927Z,100141.84
2019-01-16T03:29:10.977Z,100136.97
2019-01-16T03:31:48.942Z,100136.97
2019-01-16T03:34:38.093Z,100136.82
2019-01-16T03:37:29.650Z,100141.16
2019-01-16T03:40:16.368Z,100141.16
2019-01-16T03:43:05.082Z,100160.69
2019-01-16T03:46:01.626Z,100160.69
2019-01-16T03:48:55.207Z,100173.73
2019-01-16T03:51:46.083Z,100173.73
2019-01-16T03:54:39.243Z,100174.95
2019-01-16T03:57:23.981Z,100181.36
2019-01-16T04:00:20.024Z,100197.83
2019-01-16T04:03:09.189Z,100221.81
2019-01-16T04:05:56.750Z,100236.84
2019-01-16T04:08:45.672Z,100236.84
2019-01-16T04:11:26.298Z,100233.15
2019-01-16T04:14:15.199Z,100226.44
2019-01-16T04:17:04.471Z,100226.44
2019-01-16T04:19:53.631Z,100241.32
2019-01-16T04:22:46.586Z,100239.52
2019-01-16T04:25:37.751Z,100239.52
2019-01-16T04:28:23.089Z,100241.42
2019-01-16T04:31:23.193Z,100241.89
2019-01-16T04:34:12.674Z,100241.89
2019-01-16T04:37:02.962Z,100223.83
2019-01-16T04:39:59.405Z,100223.83
2019-01-16T04:42:52.762Z,100223.00
2019-01-16T04:45:43.143Z,100216.63
2019-01-16T04:48:52.294Z,100206.86
2019-01-16T04:51:52.002Z,100213.08
2019-01-16T04:54:37.845Z,100199.71
2019-01-16T04:57:27.257Z,100199.71
2019-01-16T05:00:17.963Z,100206.95
2019-01-16T05:03:18.110Z,100211.67
2019-01-16T05:05:57.097Z,100197.99
2019-01-16T05:08:42.157Z,100184.42
2019-01-16T05:11:41.679Z,100184.42
2019-01-16T05:14:40.881Z,100186.17
2019-01-16T05:17:40.597Z,100186.72
2019-01-16T05:20:29.968Z,100181.45
2019-01-16T05:23:16.992Z,100181.45
2019-01-16T05:26:06.042Z,100166.84
2019-01-16T05:28:55.104Z,100158.91
2019-01-16T05:31:45.594Z,100158.91
2019-01-16T05:34:36.736Z,100157.62
2019-01-16T05:37:29.814Z,100129.48
2019-01-16T05:40:46.283Z,100125.96
2019-01-16T05:43:32.170Z,100130.53
2019-01-16T05:46:22.960Z,100135.08
2019-01-16T05:49:13.435Z,100135.08
2019-01-16T05:52:06.665Z,100128.00
2019-01-16T05:54:57.092Z,100123.48
2019-01-16T05:57:45.863Z,100113.92
2019-01-16T06:00:39.125Z,100097.14
2019-01-16T06:03:29.703Z,100095.52
2019-01-16T06:06:15.627Z,100095.52
2019-01-16T06:09:12.363Z,100078.81
2019-01-16T06:12:03.366Z,100090.76
2019-01-16T06:15:02.672Z,100090.76
2019-01-16T06:17:58.801Z,100074.55
2019-01-16T06:20:47.963Z,100074.55
2019-01-16T06:23:47.878Z,100092.70
2019-01-16T06:26:36.636Z,100103.20
2019-01-16T06:29:38.602Z,100100.69
2019-01-16T06:32:35.139Z,100074.64
2019-01-16T06:35:38.123Z,100095.95
2019-01-16T06:38:32.720Z,100089.61
2019-01-16T06:41:26.059Z,100084.36
2019-01-16T06:44:16.996Z,100081.62
2019-01-16T06:47:07.583Z,100081.62
2019-01-16T06:50:04.436Z,100071.13
2019-01-16T06:53:00.670Z,100057.13
2019-01-16T06:55:54.339Z,100057.13
2019-01-16T06:58:37.536Z,100046.53
2019-01-16T07:01:34.334Z,100042.05
2019-01-16T07:04:22.949Z,100029.03
2019-01-16T07:07:07.739Z,100029.03
2019-01-16T07:09:51.044Z,100009.84
2019-01-16T07:12:40.225Z,100010.13
2019-01-16T07:15:36.442Z,100010.13
2019-01-16T07:18:25.614Z,100015.53
2019-01-16T07:21:27.773Z,99997.02
2019-01-16T07:24:09.470Z,99993.34
2019-01-16T07:27:05.493Z,99993.34
2019-01-16T07:30:03.173Z,99989.46
2019-01-16T07:33:05.855Z,99969.16
2019-01-16T07:36:08.636Z,99962.39
2019-01-16T07:38:58.097Z,99962.39
2019-01-16T07:42:00.881Z,99965.72
2019-01-16T07:44:57.225Z,99966.17
2019-01-16T07:47:40.234Z,99967.08
2019-01-16T07:50:33.908Z,99967.08
2019-01-16T07:53:21.189Z,99955.00
2019-01-16T07:56:26.879Z,99934.42
2019-01-16T07:59:10.250Z,99926.75
2019-01-16T08:01:59.465Z,99913.91
2019-01-16T08:04:49.656Z,99923.05
2019-01-16T08:07:42.357Z,99923.05
2019-01-16T08:10:48.160Z,99925.98
2019-01-16T08:13:38.568Z,99925.98
2019-01-16T08:16:32.540Z,99919.91
2019-01-16T08:19:22.009Z,99902.55
2019-01-16T08:22:11.587Z,99904.19
2019-01-16T08:25:11.398Z,99897.16
2019-01-16T08:28:10.492Z,99899.11
2019-01-16T08:31:19.512Z,99899.11
2019-01-16T08:34:19.747Z,99885.56
2019-01-16T08:37:18.024Z,99880.53
2019-01-16T08:40:26.863Z,99869.86
2019-01-16T08:43:12.614Z,99869.86
2019-01-16T08:46:08.856Z,99858.91
2019-01-16T08:48:58.058Z,99858.91
2019-01-16T08:51:57.746Z,99851.47
2019-01-16T08:54:46.697Z,99855.78
2019-01-16T08:57:52.144Z,99852.72
2019-01-16T09:00:48.479Z,99850.36
2019-01-16T09:03:37.953Z,99850.36
2019-01-16T09:06:27.431Z,99848.48
2019-01-16T09:09:16.486Z,99844.80
2019-01-16T09:12:07.097Z,99851.80
2019-01-16T09:15:16.218Z,99851.80
2019-01-16T09:18:07.204Z,99846.19
2019-01-16T09:21:07.833Z,99846.19
2019-01-16T09:24:16.278Z,99823.91
2019-01-16T09:27:18.141Z,99823.91
2019-01-16T09:30:06.920Z,99842.23
2019-01-16T09:32:57.300Z,99847.97
2019-01-16T09:35:47.885Z,99847.97
2019-01-16T09:38:47.384Z,99833.09
2019-01-16T09:41:37.782Z,99833.09
2019-01-16T09:44:31.365Z,99815.19
2019-01-16T09:47:31.072Z,99815.19
2019-01-16T09:50:21.573Z,99803.47
2019-01-16T09:53:02.788Z,99803.48
2019-01-16T09:55:53.953Z,99795.91
2019-01-16T09:58:43.445Z,99795.91
2019-01-16T10:01:38.411Z,99787.74
2019-01-16T10:04:30.051Z,99787.74
2019-01-16T10:07:17.698Z,99788.31
2019-01-16T10:10:01.713Z,99774.50
2019-01-16T10:12:49.770Z,99765.48
2019-01-16T10:15:38.620Z,99765.48
2019-01-16T10:18:17.600Z,99767.61
2019-01-16T10:20:59.724Z,99768.79
2019-01-16T10:24:01.722Z,99765.48
2019-01-16T10:26:50.968Z,99758.45
2019-01-16T10:29:40.694Z,99759.70
2019-01-16T10:32:29.618Z,99759.70
2019-01-16T10:35:20.109Z,99775.00
2019-01-16T10:38:19.206Z,99775.00
2019-01-16T10:41:22.904Z,99770.38
2019-01-16T10:44:12.488Z,99770.38
2019-01-16T10:47:08.648Z,99755.64
2019-01-16T10:50:03.248Z,99758.31
2019-01-16T10:52:52.861Z,99758.31
2019-01-16T10:55:41.741Z,99768.25
2019-01-16T10:58:38.204Z,99772.55
2019-01-16T11:01:26.231Z,99772.55
2019-01-16T11:04:28.447Z,99771.80
2019-01-16T11:07:17.439Z,99783.11
2019-01-16T11:10:17.248Z,99783.11
2019-01-16T11:13:13.907Z,99774.45
2019-01-16T11:16:07.554Z,99774.45
2019-01-16T11:19:03.825Z,99775.77
2019-01-16T11:22:12.951Z,99767.25
2019-01-16T11:25:01.616Z,99749.48
2019-01-16T11:28:01.530Z,99756.00
2019-01-16T11:30:49.419Z,99756.00
2019-01-16T11:33:55.604Z,99762.21
2019-01-16T11:36:44.554Z,99746.95
2019-01-16T11:39:47.646Z,99746.95
2019-01-16T11:42:45.223Z,99771.27
2019-01-16T11:45:24.337Z,99771.27
2019-01-16T11:48:20.669Z,99782.36
2019-01-16T11:51:18.486Z,99782.36
2019-01-16T11:54:04.560Z,99785.28
2019-01-16T11:56:43.573Z,99776.84
2019-01-16T11:59:41.539Z,99764.97
2019-01-16T12:02:44.122Z,99769.99
2019-01-16T12:05:39.411Z,99778.05
2019-01-16T12:08:29.721Z,99778.05
2019-01-16T12:11:29.031Z,99771.13
2019-01-16T12:14:18.188Z,99771.13
2019-01-16T12:17:01.832Z,99774.49
2019-01-16T12:19:58.248Z,99777.56
2019-01-16T12:22:54.902Z,99784.59
2019-01-16T12:25:38.544Z,99784.59
2019-01-16T12:28:34.871Z,99787.73
2019-01-16T12:31:23.825Z,99785.74
2019-01-16T12:34:14.327Z,99791.95
2019-01-16T12:37:04.824Z,99791.95
2019-01-16T12:39:55.530Z,99792.91
2019-01-16T12:42:44.504Z,99788.59
2019-01-16T12:45:37.745Z,99782.38
2019-01-16T12:48:44.212Z,99782.38
2019-01-16T12:51:38.616Z,99779.21
2019-01-16T12:54:31.849Z,99779.21
2019-01-16T12:57:36.559Z,99777.66
2019-01-16T13:00:44.579Z,99772.03
2019-01-16T13:03:35.904Z,99776.09
2019-01-16T13:09:15.362Z,99785.11
2019-01-16T13:12:06.374Z,99804.08
2019-01-16T13:15:00.974Z,99804.08
2019-01-16T13:17:50.426Z,99815.91
2019-01-16T13:20:40.821Z,99818.02
2019-01-16T13:23:29.986Z,99819.58
2019-01-16T13:26:18.751Z,99829.16
2019-01-16T13:29:15.089Z,99821.53
2019-01-16T13:32:14.707Z,99827.21
2019-01-16T13:35:05.806Z,99827.21
2019-01-16T13:37:48.936Z,99833.33
2019-01-16T13:40:38.622Z,99839.53
2019-01-16T13:43:24.702Z,99852.12
2019-01-16T13:46:14.886Z,99852.12
2019-01-16T14:00:37.416Z,99859.94
2019-01-16T14:03:20.997Z,99859.94
2019-01-16T14:06:11.510Z,99865.89
2019-01-16T14:09:12.941Z,99865.89
2019-01-16T14:12:01.871Z,99864.56
2019-01-16T14:14:51.630Z,99863.97
2019-01-16T14:17:46.264Z,99870.04
2019-01-16T14:20:37.364Z,99870.04
2019-01-16T14:23:42.925Z,99873.59
2019-01-16T14:26:31.784Z,99874.23
2019-01-16T14:29:24.851Z,99887.34
2019-01-16T14:32:13.700Z,99885.59
2019-01-16T14:35:12.997Z,99891.52
2019-01-16T14:38:02.056Z,99892.78
2019-01-16T14:41:00.236Z,99892.78
2019-01-16T14:43:43.370Z,99899.00
2019-01-16T14:46:32.114Z,99896.20
2019-01-16T14:49:18.457Z,99892.77
2019-01-16T14:52:14.971Z,99906.81
2019-01-16T14:55:06.308Z,99906.45
2019-01-16T14:57:47.235Z,99906.45
2019-01-16T15:00:37.436Z,99911.89
2019-01-16T15:03:26.387Z,99918.91
2019-01-16T15:06:13.315Z,99918.91
2019-01-16T15:09:07.485Z,99918.55
2019-01-16T15:12:00.958Z,99918.55
2019-01-16T15:14:50.334Z,99923.41
2019-01-16T15:17:40.611Z,99914.73
2019-01-16T15:20:43.801Z,99918.29
2019-01-16T15:23:26.043Z,99911.83
2019-01-16T15:26:15.267Z,99911.83
2019-01-16T15:28:57.884Z,99904.48
2019-01-16T15:31:47.150Z,99908.60
2019-01-16T15:34:49.367Z,99912.02
2019-01-16T15:37:43.001Z,99910.30
2019-01-16T15:40:32.858Z,99908.00
2019-01-16T15:43:20.426Z,99917.22
2019-01-16T15:46:20.452Z,99906.05
2019-01-16T15:49:17.343Z,99906.05
2019-01-16T15:52:13.059Z,99914.11
2019-01-16T15:55:09.119Z,99913.25
2019-01-16T15:57:59.573Z,99913.17
2019-01-16T16:00:56.150Z,99909.69
2019-01-16T16:04:02.000Z,99915.66
2019-01-16T16:06:50.859Z,99915.66
2019-01-16T16:09:38.146Z,99915.05
2019-01-16T16:12:29.205Z,99918.94
2019-01-16T16:15:22.358Z,99921.01
2019-01-16T16:18:21.868Z,99922.18
2019-01-16T16:21:20.653Z,99918.13
2019-01-16T16:24:05.772Z,99927.13
2019-01-16T16:26:48.351Z,99925.97
2019-01-16T16:29:37.815Z,99927.90
2019-01-16T16:32:37.511Z,99927.90
2019-01-16T16:35:27.458Z,99920.20
2019-01-16T16:38:16.257Z,99917.72
2019-01-16T16:41:12.483Z,99918.66
2019-01-16T16:44:03.188Z,99918.66
2019-01-16T16:46:57.462Z,99915.50
2019-01-16T16:49:40.585Z,99915.50
2019-01-16T16:52:31.195Z,99919.92
2019-01-16T16:55:37.860Z,99919.92
2019-01-16T16:58:31.324Z,99906.61
2019-01-16T17:01:28.061Z,99906.61
2019-01-16T17:04:18.212Z,99897.34
2019-01-16T17:07:14.273Z,99893.96
2019-01-16T17:10:04.266Z,99893.96
2019-01-16T17:12:55.361Z,99900.15
2019-01-16T17:15:51.424Z,99900.15
2019-01-16T17:18:39.493Z,99897.02
2019-01-16T17:21:26.038Z,99887.72
2019-01-16T17:24:26.497Z,99894.58
2019-01-16T17:27:15.343Z,99897.53
2019-01-16T17:30:00.394Z,99890.39
2019-01-16T17:32:59.509Z,99875.12
2019-01-16T17:36:01.967Z,99875.12
2019-01-16T17:38:58.099Z,99862.95
2019-01-16T17:41:41.562Z,99856.58
2019-01-16T17:44:28.961Z,99846.42
2019-01-16T17:47:25.492Z,99848.75
2019-01-16T17:50:15.589Z,99848.75
2019-01-16T17:53:15.195Z,99843.56
2019-01-16T17:56:07.953Z,99838.62
2019-01-16T17:58:57.568Z,99838.62
2019-01-16T18:02:00.089Z,99850.84
2019-01-16T18:04:44.550Z,99844.70
2019-01-16T18:07:33.211Z,99844.70
2019-01-16T18:10:24.022Z,99839.68
2019-01-16T18:13:26.087Z,99832.63
2019-01-16T18:16:22.507Z,99832.63
2019-01-16T18:19:12.801Z,99830.08
2019-01-16T18:22:11.887Z,99832.25
2019-01-16T18:25:00.858Z,99832.25
2019-01-16T18:27:44.154Z,99835.17
2019-01-16T18:30:44.716Z,99835.17
2019-01-16T18:33:37.252Z,99828.00
2019-01-16T18:36:25.960Z,99828.00
2019-01-16T18:39:31.870Z,99831.42
2019-01-16T18:42:28.104Z,99835.89
2019-01-16T18:45:26.689Z,99834.73
2019-01-16T18:48:20.376Z,99826.55
2019-01-16T18:51:11.568Z,99826.55
2019-01-16T18:53:58.067Z,99832.84
2019-01-16T18:56:56.867Z,99831.42
2019-01-16T18:59:50.541Z,99831.42
2019-01-16T19:05:37.459Z,99826.56
2019-01-16T19:08:38.809Z,99829.51
2019-01-16T19:11:41.095Z,99823.21
2019-01-16T19:14:46.541Z,99815.35
2019-01-16T19:17:43.500Z,99813.73
2019-01-16T19:20:35.097Z,99810.80
2019-01-16T19:23:25.295Z,99808.37
2019-01-16T19:26:10.869Z,99808.37
2019-01-16T19:29:00.557Z,99804.92
2019-01-16T19:31:53.709Z,99807.70
2019-01-16T19:34:34.481Z,99812.11
2019-01-16T19:37:17.190Z,99808.71
2019-01-16T19:40:20.499Z,99807.25
2019-01-16T19:43:29.312Z,99803.89
2019-01-16T19:46:31.810Z,99809.20
2019-01-16T19:49:13.993Z,99801.75
2019-01-16T19:51:58.967Z,99799.77
2019-01-16T19:54:49.149Z,99796.29
2019-01-16T19:57:39.330Z,99792.79
2019-01-16T20:00:36.797Z,99792.79
2019-01-16T20:03:35.789Z,99795.66
2019-01-16T20:06:32.121Z,99794.73
2019-01-16T20:09:20.576Z,99791.12
2019-01-16T20:12:26.324Z,99795.84
2019-01-16T20:15:19.897Z,99796.84
2019-01-16T20:18:12.736Z,99788.66
2019-01-16T20:21:01.849Z,99790.06
2019-01-16T20:23:50.667Z,99790.06
2019-01-16T20:26:53.256Z,99788.53
2019-01-16T20:29:41.898Z,99790.06
2019-01-16T20:32:32.281Z,99790.06
2019-01-16T20:35:25.146Z,99799.91
2019-01-16T20:38:15.430Z,99796.45
2019-01-16T20:41:00.366Z,99801.95
2019-01-16T20:43:59.917Z,99803.37
2019-01-16T20:47:05.460Z,99798.13
2019-01-16T20:49:55.236Z,99797.63
2019-01-16T20:52:48.398Z,99797.63
2019-01-16T20:55:45.992Z,99798.41
2019-01-16T20:58:29.107Z,99791.84
2019-01-16T21:01:10.865Z,99794.52
2019-01-16T21:04:07.114Z,99786.25
2019-01-16T21:06:55.965Z,99779.08
2019-01-16T21:09:54.746Z,99779.08
2019-01-16T21:13:00.408Z,99780.48
2019-01-16T21:15:51.755Z,99784.36
2019-01-16T21:18:52.759Z,99779.05
2019-01-16T21:21:35.982Z,99779.05
2019-01-16T21:24:25.255Z,99788.50
2019-01-16T21:27:15.851Z,99787.37
2019-01-16T21:30:06.034Z,99785.58
2019-01-16T21:32:46.098Z,99785.58
2019-01-16T21:35:36.689Z,99789.23
2019-01-16T21:38:45.350Z,99770.05
2019-01-16T21:41:35.878Z,99770.05
2019-01-16T21:44:35.315Z,99764.75
2019-01-16T21:47:38.001Z,99766.45
2019-01-16T21:50:27.375Z,99766.45
2019-01-16T21:53:15.502Z,99759.16
2019-01-16T21:56:05.592Z,99759.16
2019-01-16T21:58:54.660Z,99760.25
2019-01-16T22:01:53.549Z,99761.61
2019-01-16T22:04:42.596Z,99761.61
2019-01-16T22:07:50.826Z,99761.39
2019-01-16T22:10:44.276Z,99756.67
2019-01-16T22:13:34.382Z,99756.67
2019-01-16T22:16:26.438Z,99752.89
2019-01-16T22:19:23.863Z,99741.95
2019-01-16T22:22:16.415Z,99741.95
2019-01-16T22:25:13.862Z,99742.33
2019-01-16T22:27:56.990Z,99742.78
2019-01-16T22:30:49.839Z,99744.20
2019-01-16T22:33:45.960Z,99744.20
2019-01-16T22:36:29.911Z,99750.13
2019-01-16T22:39:19.820Z,99753.22
2019-01-16T22:42:08.850Z,99753.22
2019-01-16T22:44:59.056Z,99741.73
2019-01-16T22:47:40.548Z,99740.60
2019-01-16T22:50:36.879Z,99740.60
2019-01-16T22:53:30.372Z,99737.84
2019-01-16T22:56:29.730Z,99746.94
2019-01-16T22:59:19.420Z,99738.47
2019-01-16T23:02:05.247Z,99741.00
2019-01-16T23:04:55.006Z,99743.34
2019-01-16T23:07:34.955Z,99741.79
2019-01-16T23:10:43.266Z,99741.79
2019-01-16T23:13:36.305Z,99734.87
2019-01-16T23:16:42.256Z,99734.87
2019-01-16T23:19:31.213Z,99733.55
2019-01-16T23:22:27.445Z,99733.55
2019-01-16T23:25:16.193Z,99734.48
2019-01-16T23:28:10.713Z,99729.92
2019-01-16T23:31:13.926Z,99733.80
2019-01-16T23:34:10.340Z,99731.55
2019-01-16T23:37:05.734Z,99733.56
2019-01-16T23:39:45.793Z,99733.56
2019-01-16T23:42:34.754Z,99740.25
2019-01-16T23:45:31.489Z,99751.68
2019-01-16T23:48:22.078Z,99748.70
2019-01-16T23:51:05.118Z,99748.70
2019-01-16T23:53:58.569Z,99761.07
2019-01-16T23:56:47.221Z,99761.07
2019-01-16T23:59:43.563Z,99768.78
